NWWW METAR and TAF weather

Enter ICAO airport designator
Station Type Date Time Source
NWWW METAR 2022/12/04 11:30 UTC NOAA

NWWW 041130Z AUTO 36002KT 9999 SCT058 BKN120 OVC150 25/25 Q1010 TEMPO 4500 SHRA FEW020CB


Station Type Date Time Source
NWWW Decoded METAR 2022/12/04 11:30 UTC NOAA

La Tontouta Nlle-Caledonie , New Caledonia (NWWW) 22-01S 166-13E 14M
Dec 04, 2022 - 06:30 AM EST / 2022.12.04 1130 UTC
Wind: from the N (360 degrees) at 2 MPH (2 KT):0
Visibility: greater than 7 mile(s):0
Sky conditions: overcast
Weather: Cumulonimbus clouds observed
Temperature: 77 F (25 C)
Dew Point: 77 F (25 C)
Relative Humidity: 100%
Pressure (altimeter): 29.83 in. Hg (1010 hPa)
ob: NWWW 041130Z AUTO 36002KT 9999 SCT058 BKN120 OVC150 25/25 Q1010 TEMPO 4500 SHRA FEW020CB
cycle: 11

Station Type Date Time Source
NWWW TAF 2022/12/04 12:09 UTC NOAA

TAF NWWW 041100Z 0412/0512 VRB02KT 9999 FEW045 BKN150 PROB40
TEMPO 0412/0512 RA PROB30
TEMPO 0412/0415 4500 SHRA FEW020CB
TEMPO 0502/0506 30010KT 3000 TSRA BKN014 FEW018CB

Example: see airport list